Time;durP1;ratioP1;P1;durP2;ratioP2;P2;SDS_P1;SDS_P2;PMS_P1;PMS_P2;Temp;Humidity;BMP_temperature;BMP_pressure;BME280_temperature;BME280_humidity;BME280_pressure;Samples;Min_cycle;Max_cycle;Signal;HPM_P1;HPM_P2
2022/09/17 00:00:22;;;;;;;16.30;2.67;;;11.40;90.60;;;;;;4980286;28;20398;-75
2022/09/17 00:02:54;;;;;;;11.82;2.45;;;11.30;90.70;;;;;;4982627;28;20092;-75
2022/09/17 00:05:22;;;;;;;13.10;2.90;;;11.30;90.80;;;;;;4984712;28;20038;-75
2022/09/17 00:07:48;;;;;;;13.60;2.50;;;11.30;90.80;;;;;;4987214;28;20084;-75
2022/09/17 00:10:14;;;;;;;13.07;2.40;;;11.30;90.80;;;;;;4985322;28;20495;-76
2022/09/17 00:12:40;;;;;;;9.90;2.33;;;11.30;90.80;;;;;;4982218;28;20463;-75
2022/09/17 00:15:06;;;;;;;10.18;2.38;;;11.30;90.90;;;;;;4982280;28;20042;-75
2022/09/17 00:17:32;;;;;;;17.23;3.13;;;11.30;91.00;;;;;;4986559;28;20026;-75
2022/09/17 00:19:58;;;;;;;15.60;2.97;;;11.30;91.00;;;;;;4984534;28;20031;-75
2022/09/17 00:22:23;;;;;;;13.82;2.72;;;11.30;90.90;;;;;;4985219;28;20030;-75
2022/09/17 00:24:49;;;;;;;13.07;2.55;;;11.40;91.00;;;;;;4986820;28;20050;-75
2022/09/17 00:27:14;;;;;;;9.82;1.75;;;11.20;91.10;;;;;;4982351;28;20027;-76
2022/09/17 00:29:40;;;;;;;10.18;2.35;;;11.20;91.10;;;;;;4987585;28;20113;-75
2022/09/17 00:32:06;;;;;;;7.43;1.90;;;11.10;91.10;;;;;;4987343;28;20030;-75
2022/09/17 00:34:31;;;;;;;7.45;1.85;;;11.20;91.20;;;;;;4985977;28;20478;-74
2022/09/17 00:36:57;;;;;;;20.10;2.65;;;11.20;91.30;;;;;;4988190;28;20037;-75
2022/09/17 00:39:23;;;;;;;7.65;1.73;;;11.20;91.40;;;;;;4987205;28;20033;-74
2022/09/17 00:41:48;;;;;;;9.00;1.85;;;11.20;91.50;;;;;;4980775;28;20494;-75
2022/09/17 00:44:41;;;;;;;13.07;2.55;;;11.20;91.60;;;;;;4984197;28;20045;-75
2022/09/17 00:47:16;;;;;;;11.02;2.45;;;11.30;91.80;;;;;;4982014;28;20473;-75
2022/09/17 00:49:42;;;;;;;;;;;11.30;91.70;;;;;;4982746;28;20122;-75
2022/09/17 00:52:12;;;;;;;12.80;2.67;;;11.20;91.80;;;;;;4964753;28;20013;-74
2022/09/17 00:54:41;;;;;;;14.48;2.47;;;11.10;91.60;;;;;;4968183;28;20938;-75
2022/09/17 00:57:07;;;;;;;13.27;3.03;;;11.10;91.70;;;;;;4968204;28;20098;-75
2022/09/17 00:59:34;;;;;;;14.43;2.92;;;11.10;91.60;;;;;;4973897;28;20461;-75
2022/09/17 01:01:59;;;;;;;13.55;2.28;;;11.10;91.60;;;;;;4991192;28;20034;-75
2022/09/17 01:04:26;;;;;;;14.38;2.42;;;11.10;91.70;;;;;;4986596;28;20129;-75
2022/09/17 01:06:58;;;;;;;15.65;2.80;;;11.20;91.90;;;;;;4983325;28;20092;-75
2022/09/17 01:10:03;;;;;;;12.55;2.47;;;11.20;91.80;;;;;;4982685;28;20399;-75
2022/09/17 01:12:40;;;;;;;12.63;2.50;;;11.20;91.80;;;;;;4979039;28;20023;-74
2022/09/17 01:15:31;;;;;;;13.15;2.50;;;11.20;91.90;;;;;;4980425;28;20038;-75
2022/09/17 01:18:32;;;;;;;11.15;2.80;;;11.30;91.90;;;;;;4987674;28;20061;-76
2022/09/17 01:21:04;;;;;;;11.55;2.28;;;11.30;91.90;;;;;;4985302;28;20061;-76
2022/09/17 01:24:18;;;;;;;10.88;2.35;;;11.40;91.90;;;;;;4967083;28;20078;-75
2022/09/17 01:27:00;;;;;;;17.20;2.53;;;11.40;91.90;;;;;;4959600;28;20043;-78
2022/09/17 01:29:49;;;;;;;14.32;3.15;;;11.30;91.90;;;;;;4970439;28;20442;-76
2022/09/17 01:32:19;;;;;;;10.77;2.00;;;11.40;92.00;;;;;;4972872;28;20055;-76
2022/09/17 01:35:24;;;;;;;13.88;2.95;;;11.40;92.10;;;;;;4971251;28;20554;-76
2022/09/17 01:38:10;;;;;;;11.55;2.47;;;11.40;92.00;;;;;;4968883;28;20047;-76
2022/09/17 01:40:48;;;;;;;9.85;2.47;;;11.40;91.90;;;;;;4980962;28;20092;-75
2022/09/17 01:43:14;;;;;;;9.85;2.50;;;11.30;92.00;;;;;;4984684;28;20418;-76
2022/09/17 01:45:42;;;;;;;14.25;2.80;;;11.40;92.10;;;;;;4980204;28;20527;-77
2022/09/17 01:48:11;;;;;;;13.15;2.70;;;11.40;92.10;;;;;;4984540;28;20042;-76
2022/09/17 01:50:49;;;;;;;16.98;2.78;;;11.40;92.00;;;;;;4983832;28;20039;-76
2022/09/17 01:53:18;;;;;;;12.82;2.63;;;11.30;91.90;;;;;;4982069;28;20497;-76
2022/09/17 01:55:45;;;;;;;13.55;3.17;;;11.30;91.90;;;;;;4984253;28;20057;-76
2022/09/17 01:58:28;;;;;;;9.43;2.20;;;11.20;91.90;;;;;;4985812;28;20035;-76
2022/09/17 02:01:03;;;;;;;12.75;2.67;;;11.20;92.00;;;;;;4963937;28;20047;-75
2022/09/17 02:03:36;;;;;;;15.00;2.70;;;11.10;92.00;;;;;;4963091;28;20323;-75
2022/09/17 02:06:10;;;;;;;13.18;2.83;;;11.10;92.00;;;;;;4964138;28;20038;-75
2022/09/17 02:08:42;;;;;;;15.95;3.47;;;11.00;92.10;;;;;;4965401;28;20101;-76
2022/09/17 02:11:14;;;;;;;9.55;2.72;;;10.90;92.00;;;;;;4960225;28;20126;-76
2022/09/17 02:14:02;;;;;;;20.40;3.47;;;10.90;92.10;;;;;;4958838;28;20051;-75
2022/09/17 02:16:43;;;;;;;12.45;2.83;;;10.80;92.20;;;;;;4968786;28;20517;-76
2022/09/17 02:19:19;;;;;;;13.63;2.97;;;10.70;92.30;;;;;;4965571;28;20034;-76
2022/09/17 02:21:57;;;;;;;15.20;4.18;;;10.70;92.40;;;;;;4972336;28;20426;-76
2022/09/17 02:24:32;;;;;;;14.27;3.80;;;10.70;92.40;;;;;;4964462;28;20047;-76
2022/09/17 02:27:08;;;;;;;20.80;4.47;;;10.70;92.50;;;;;;4964692;28;20046;-75
2022/09/17 02:29:40;;;;;;;17.85;4.45;;;10.60;92.50;;;;;;4971555;28;20047;-75
2022/09/17 02:32:07;;;;;;;20.00;4.10;;;10.70;92.60;;;;;;4982943;28;20030;-76
2022/09/17 02:34:33;;;;;;;15.82;3.95;;;10.60;92.40;;;;;;4993181;28;20045;-76
2022/09/17 02:37:00;;;;;;;18.35;4.28;;;10.60;92.50;;;;;;4985937;28;20428;-75
2022/09/17 02:39:26;;;;;;;15.80;4.00;;;10.60;92.60;;;;;;4983971;28;20034;-76
2022/09/17 02:42:29;;;;;;;16.92;4.80;;;10.50;92.60;;;;;;4986838;28;20391;-76
2022/09/17 02:45:19;;;;;;;14.80;4.35;;;10.50;92.70;;;;;;4984243;28;20422;-75
2022/09/17 02:48:19;;;;;;;20.27;5.90;;;10.50;92.70;;;;;;4978279;28;20067;-76
2022/09/17 02:51:16;;;;;;;18.58;5.30;;;10.50;92.70;;;;;;4979362;28;20027;-75
2022/09/17 02:54:04;;;;;;;22.98;7.88;;;10.40;92.70;;;;;;4964497;28;20125;-75
2022/09/17 02:56:45;;;;;;;16.58;5.95;;;10.40;92.70;;;;;;4988243;28;20054;-74
2022/09/17 02:59:26;;;;;;;22.25;7.05;;;10.40;92.80;;;;;;4971263;28;20038;-75
2022/09/17 03:01:57;;;;;;;25.23;6.55;;;10.40;92.80;;;;;;4974145;28;20054;-75
2022/09/17 03:04:26;;;;;;;18.13;5.15;;;10.40;92.80;;;;;;4967114;28;20050;-75
2022/09/17 03:06:52;;;;;;;18.35;4.93;;;10.40;92.70;;;;;;4967331;28;20399;-76
2022/09/17 03:09:19;;;;;;;19.65;4.90;;;10.40;92.30;;;;;;4972674;28;20061;-75
2022/09/17 03:11:44;;;;;;;21.58;4.28;;;10.40;92.10;;;;;;4965396;28;20051;-75
2022/09/17 03:14:10;;;;;;;22.90;4.20;;;10.40;91.90;;;;;;4977306;28;20039;-75
2022/09/17 03:16:36;;;;;;;25.02;3.45;;;10.40;91.80;;;;;;4988168;28;20030;-75
2022/09/17 03:19:01;;;;;;;17.00;3.30;;;10.40;91.50;;;;;;4988950;28;20495;-76
2022/09/17 03:21:27;;;;;;;15.35;3.17;;;10.40;91.20;;;;;;4985673;28;20038;-75
2022/09/17 03:23:53;;;;;;;15.45;3.72;;;10.50;91.00;;;;;;4987687;28;20552;-75
2022/09/17 03:26:19;;;;;;;17.25;4.15;;;10.50;91.00;;;;;;4987654;28;20046;-75
2022/09/17 03:28:44;;;;;;;20.17;3.35;;;10.60;90.90;;;;;;4986720;28;20038;-76
2022/09/17 03:31:10;;;;;;;16.45;3.58;;;10.60;90.70;;;;;;4987721;28;20097;-75
2022/09/17 03:33:35;;;;;;;17.35;3.65;;;10.60;90.60;;;;;;4988206;28;20042;-75
2022/09/17 03:36:01;;;;;;;14.85;3.40;;;10.70;90.70;;;;;;4987421;28;20418;-75
2022/09/17 03:38:27;;;;;;;17.63;3.33;;;10.80;90.60;;;;;;4987275;28;20062;-74
2022/09/17 03:41:00;;;;;;;18.63;3.03;;;10.90;90.10;;;;;;4987069;28;20038;-76
2022/09/17 03:43:27;;;;;;;13.23;2.40;;;11.00;89.60;;;;;;4982785;28;20128;-76
2022/09/17 03:45:52;;;;;;;14.88;2.47;;;11.10;89.50;;;;;;4988194;28;20057;-75
2022/09/17 03:48:18;;;;;;;17.70;3.40;;;11.10;89.40;;;;;;4988919;28;20528;-76
2022/09/17 03:50:43;;;;;;;16.42;2.50;;;11.10;89.50;;;;;;4987450;28;21287;-75
2022/09/17 03:53:10;;;;;;;10.43;2.90;;;11.10;89.60;;;;;;4988147;28;20065;-75
2022/09/17 03:55:37;;;;;;;13.63;2.33;;;11.10;89.70;;;;;;4987347;28;21170;-75
2022/09/17 03:58:03;;;;;;;16.27;2.22;;;11.10;89.90;;;;;;4989903;28;20081;-76
2022/09/17 04:00:29;;;;;;;15.98;2.63;;;11.10;89.80;;;;;;4987345;28;20438;-76
2022/09/17 04:02:55;;;;;;;11.45;2.50;;;11.10;89.80;;;;;;4989025;28;20065;-76
2022/09/17 04:05:20;;;;;;;14.20;2.72;;;11.10;89.80;;;;;;4985324;28;21072;-76
2022/09/17 04:07:46;;;;;;;13.13;2.83;;;11.10;89.90;;;;;;4987862;28;20074;-75
2022/09/17 04:10:12;;;;;;;11.43;2.40;;;11.10;89.90;;;;;;4987106;28;20129;-74
2022/09/17 04:12:38;;;;;;;13.30;2.92;;;11.10;90.10;;;;;;4988817;28;20545;-76
2022/09/17 04:15:05;;;;;;;11.43;2.92;;;11.10;90.10;;;;;;4985245;28;20062;-77
2022/09/17 04:17:31;;;;;;;16.35;2.67;;;11.10;90.10;;;;;;4988122;28;20053;-75
2022/09/17 04:19:57;;;;;;;14.40;2.30;;;11.10;90.10;;;;;;4986695;28;20042;-76
2022/09/17 04:22:24;;;;;;;15.15;2.17;;;11.10;90.10;;;;;;4986856;28;20471;-75
2022/09/17 04:24:49;;;;;;;13.77;1.98;;;11.10;90.00;;;;;;4988108;28;20132;-75
2022/09/17 04:27:15;;;;;;;14.25;2.30;;;11.10;90.10;;;;;;4992014;28;20038;-76
2022/09/17 04:29:41;;;;;;;11.77;2.17;;;11.10;90.20;;;;;;4991075;28;20030;-75
2022/09/17 04:32:07;;;;;;;15.10;2.65;;;11.10;90.10;;;;;;4988199;28;20121;-76
2022/09/17 04:34:33;;;;;;;12.10;2.55;;;11.10;90.00;;;;;;4988530;28;20146;-75
2022/09/17 04:36:59;;;;;;;12.52;2.88;;;11.10;89.40;;;;;;4988191;28;20045;-75
2022/09/17 04:39:24;;;;;;;8.18;2.30;;;11.10;89.30;;;;;;4985885;28;20030;-75
2022/09/17 04:41:50;;;;;;;11.60;2.50;;;11.10;89.30;;;;;;4986186;28;20034;-75
2022/09/17 04:44:16;;;;;;;11.18;2.60;;;11.20;89.20;;;;;;4987893;28;20030;-76
2022/09/17 04:46:41;;;;;;;11.25;2.50;;;11.10;89.30;;;;;;4993790;28;20057;-76
2022/09/17 04:49:07;;;;;;;12.52;2.92;;;11.10;89.40;;;;;;4985728;28;20041;-75
2022/09/17 04:51:33;;;;;;;10.38;2.20;;;11.10;89.50;;;;;;4998093;28;20430;-76
2022/09/17 04:53:59;;;;;;;9.75;1.67;;;11.10;89.50;;;;;;4986176;28;20170;-75
2022/09/17 04:56:24;;;;;;;11.90;2.30;;;11.00;89.50;;;;;;4985463;28;20466;-76
2022/09/17 04:58:50;;;;;;;10.15;2.28;;;10.90;89.50;;;;;;4987537;28;20038;-76
2022/09/17 05:01:17;;;;;;;9.55;2.00;;;10.80;89.60;;;;;;4987733;28;20034;-76
2022/09/17 05:03:43;;;;;;;11.95;2.30;;;10.80;89.60;;;;;;4983358;28;20053;-76
2022/09/17 05:06:09;;;;;;;10.60;2.30;;;10.70;89.40;;;;;;4987267;28;20042;-75
2022/09/17 05:08:35;;;;;;;10.15;1.75;;;10.80;89.40;;;;;;4986224;28;20352;-75
2022/09/17 05:11:01;;;;;;;8.65;1.98;;;10.70;89.40;;;;;;4987496;28;20030;-76
2022/09/17 05:13:27;;;;;;;7.93;1.80;;;10.80;89.20;;;;;;4992908;28;20486;-76
2022/09/17 05:15:55;;;;;;;8.18;1.70;;;10.80;89.10;;;;;;4987173;28;20038;-76
2022/09/17 05:18:22;;;;;;;6.78;1.63;;;10.80;89.30;;;;;;4983781;28;20046;-78
2022/09/17 05:20:47;;;;;;;14.50;2.17;;;10.80;89.40;;;;;;4986812;28;20046;-76
2022/09/17 05:23:13;;;;;;;10.57;1.95;;;10.80;89.40;;;;;;4983996;28;20045;-76
2022/09/17 05:25:39;;;;;;;13.82;2.83;;;10.80;89.30;;;;;;4985561;28;20043;-75
2022/09/17 05:28:05;;;;;;;9.80;1.88;;;10.80;89.50;;;;;;4986316;28;20170;-75
2022/09/17 05:30:31;;;;;;;10.73;1.80;;;10.80;89.40;;;;;;4986304;28;20045;-75
2022/09/17 05:33:05;;;;;;;9.80;1.80;;;10.90;89.30;;;;;;4986376;28;20030;-75
2022/09/17 05:35:32;;;;;;;10.95;2.10;;;10.90;89.20;;;;;;4982024;28;20043;-76
2022/09/17 05:37:59;;;;;;;12.20;2.00;;;10.90;89.30;;;;;;4986069;28;20073;-76
2022/09/17 05:40:25;;;;;;;14.07;2.70;;;10.90;89.40;;;;;;4986076;28;20034;-76
2022/09/17 05:42:51;;;;;;;11.60;2.50;;;10.90;89.60;;;;;;4987173;28;20034;-76
2022/09/17 05:45:17;;;;;;;10.23;2.10;;;10.90;89.80;;;;;;4985287;28;20095;-77
2022/09/17 05:47:42;;;;;;;7.00;1.98;;;11.00;90.00;;;;;;4985952;28;20034;-76
2022/09/17 05:50:08;;;;;;;12.55;1.90;;;11.00;90.10;;;;;;4986537;28;20473;-76
2022/09/17 05:52:34;;;;;;;10.68;1.85;;;11.10;90.10;;;;;;4987601;28;20034;-75
2022/09/17 05:54:59;;;;;;;7.93;1.58;;;11.00;90.20;;;;;;4985137;28;20033;-76
2022/09/17 05:57:28;;;;;;;9.73;1.70;;;11.00;90.20;;;;;;4986033;28;20370;-77
2022/09/17 05:59:54;;;;;;;9.90;2.10;;;11.00;90.30;;;;;;4985699;28;20034;-76
2022/09/17 06:02:19;;;;;;;8.98;1.98;;;11.00;90.40;;;;;;4985422;28;20033;-76
2022/09/17 06:04:45;;;;;;;9.07;2.72;;;11.00;90.40;;;;;;4985079;28;20057;-76
2022/09/17 06:07:11;;;;;;;8.98;2.10;;;11.10;90.60;;;;;;4988950;28;20046;-75
2022/09/17 06:09:37;;;;;;;10.13;2.38;;;11.10;90.60;;;;;;4989240;28;20026;-75
2022/09/17 06:12:04;;;;;;;9.70;1.83;;;11.00;90.60;;;;;;4988326;28;20371;-75
2022/09/17 06:14:30;;;;;;;9.98;2.15;;;11.10;90.60;;;;;;4994742;28;20084;-74
2022/09/17 06:16:55;;;;;;;9.55;2.08;;;11.10;90.70;;;;;;4991627;28;20498;-76
2022/09/17 06:19:21;;;;;;;8.90;2.20;;;11.10;90.80;;;;;;4986232;28;20537;-75
2022/09/17 06:21:49;;;;;;;8.65;2.55;;;11.10;90.90;;;;;;4989157;28;20038;-74
2022/09/17 06:24:15;;;;;;;9.35;1.88;;;11.10;90.90;;;;;;4994511;28;20065;-74
2022/09/17 06:26:41;;;;;;;7.82;1.90;;;11.10;91.00;;;;;;4987371;28;20466;-75
2022/09/17 06:29:07;;;;;;;9.23;2.50;;;11.30;90.90;;;;;;4990454;28;20030;-76
2022/09/17 06:31:32;;;;;;;15.73;2.85;;;11.40;90.90;;;;;;4994633;28;20041;-76
2022/09/17 06:33:58;;;;;;;12.15;3.42;;;11.60;90.90;;;;;;4991126;28;20153;-76
2022/09/17 06:36:24;;;;;;;9.50;2.60;;;11.70;90.60;;;;;;4992584;28;20426;-76
2022/09/17 06:38:49;;;;;;;8.68;2.25;;;11.70;90.40;;;;;;4991466;28;20600;-75
2022/09/17 06:41:15;;;;;;;7.60;2.35;;;11.80;90.30;;;;;;4992818;28;20031;-75
2022/09/17 06:43:41;;;;;;;16.00;3.30;;;11.70;90.00;;;;;;4992514;28;20037;-75
2022/09/17 06:46:09;;;;;;;13.07;3.28;;;11.80;90.00;;;;;;4992748;28;20398;-75
2022/09/17 06:48:35;;;;;;;13.63;2.60;;;11.90;90.10;;;;;;4992269;28;20027;-76
2022/09/17 06:51:03;;;;;;;10.88;2.42;;;12.00;90.30;;;;;;4993769;28;20496;-76
2022/09/17 06:53:29;;;;;;;13.93;2.60;;;12.10;90.30;;;;;;4991501;28;20081;-76
2022/09/17 06:55:59;;;;;;;12.20;3.00;;;12.20;90.00;;;;;;4991746;28;20081;-76
2022/09/17 06:58:25;;;;;;;15.25;3.10;;;12.30;89.70;;;;;;4992163;28;20026;-75
2022/09/17 07:00:51;;;;;;;11.88;3.40;;;12.40;89.20;;;;;;4989507;28;20030;-75
2022/09/17 07:03:17;;;;;;;11.80;2.78;;;12.50;89.10;;;;;;4992069;28;20374;-76
2022/09/17 07:05:44;;;;;;;10.18;2.60;;;12.50;88.70;;;;;;4982124;28;20053;-75
2022/09/17 07:08:09;;;;;;;8.77;2.28;;;12.60;88.50;;;;;;4990357;28;20121;-75
2022/09/17 07:10:36;;;;;;;9.95;2.70;;;12.60;88.40;;;;;;4988918;28;20117;-76
2022/09/17 07:13:02;;;;;;;8.05;2.50;;;12.70;88.20;;;;;;4988982;28;20048;-75
2022/09/17 07:15:28;;;;;;;8.73;2.35;;;12.60;87.60;;;;;;4987363;28;20035;-75
2022/09/17 07:17:54;;;;;;;13.00;2.88;;;12.60;87.50;;;;;;4983297;28;20366;-75
2022/09/17 07:20:20;;;;;;;11.32;2.95;;;12.60;87.20;;;;;;4991896;28;20061;-75
2022/09/17 07:22:55;;;;;;;7.40;1.92;;;12.50;87.10;;;;;;4996243;28;20112;-74
2022/09/17 07:25:20;;;;;;;14.45;4.13;;;12.50;87.00;;;;;;4992862;28;20034;-74
2022/09/17 07:27:46;;;;;;;11.02;2.20;;;12.40;86.70;;;;;;4991006;28;20467;-75
2022/09/17 07:30:12;;;;;;;13.18;3.92;;;12.40;86.70;;;;;;4995532;28;20419;-75
2022/09/17 07:32:38;;;;;;;12.90;3.50;;;12.30;86.60;;;;;;4997947;28;20037;-75
2022/09/17 07:35:04;;;;;;;11.70;2.97;;;12.30;86.60;;;;;;4989884;28;20034;-75
2022/09/17 07:37:29;;;;;;;8.68;2.67;;;12.20;86.50;;;;;;4992146;28;20034;-75
2022/09/17 07:39:55;;;;;;;9.80;2.10;;;12.30;86.40;;;;;;4983677;28;20045;-75
2022/09/17 07:42:21;;;;;;;8.77;2.58;;;12.30;86.00;;;;;;4987857;28;20151;-75
2022/09/17 07:44:46;;;;;;;10.00;2.22;;;12.30;85.70;;;;;;4986541;28;20485;-75
2022/09/17 07:47:12;;;;;;;10.60;2.20;;;12.30;85.10;;;;;;4993975;28;20039;-76
2022/09/17 07:49:38;;;;;;;11.10;2.30;;;12.40;85.20;;;;;;4992469;28;20045;-75
2022/09/17 07:52:06;;;;;;;12.45;2.45;;;12.40;86.10;;;;;;4986500;28;20533;-75
2022/09/17 07:54:38;;;;;;;8.25;1.80;;;12.40;86.50;;;;;;4990594;28;20035;-76
2022/09/17 07:57:04;;;;;;;10.95;1.85;;;12.50;86.80;;;;;;4988715;28;20374;-75
2022/09/17 07:59:30;;;;;;;7.82;1.65;;;12.40;86.40;;;;;;4990132;28;20038;-77
2022/09/17 08:01:55;;;;;;;7.93;1.85;;;12.40;86.30;;;;;;4985658;28;20056;-76
2022/09/17 08:04:21;;;;;;;10.27;2.08;;;12.40;86.40;;;;;;4981851;28;20129;-76
2022/09/17 08:06:47;;;;;;;10.90;1.98;;;12.30;86.20;;;;;;4987924;28;20121;-75
2022/09/17 08:09:14;;;;;;;11.25;1.98;;;12.30;86.30;;;;;;4988465;28;20121;-76
2022/09/17 08:11:40;;;;;;;11.48;2.42;;;12.40;86.70;;;;;;4988868;28;20073;-75
2022/09/17 08:14:13;;;;;;;7.22;1.77;;;12.50;87.00;;;;;;4987635;28;20042;-75
2022/09/17 08:16:40;;;;;;;9.00;2.55;;;12.60;87.30;;;;;;4984730;28;20046;-77
2022/09/17 08:19:05;;;;;;;16.33;4.18;;;12.70;87.50;;;;;;4985736;28;20038;-75
2022/09/17 08:21:31;;;;;;;8.75;2.50;;;12.70;87.10;;;;;;4987539;28;20041;-74
2022/09/17 08:23:57;;;;;;;11.25;2.10;;;12.80;87.00;;;;;;4988338;28;20030;-75
2022/09/17 08:26:24;;;;;;;10.50;2.60;;;13.00;87.10;;;;;;4988298;28;20109;-76
2022/09/17 08:28:53;;;;;;;13.27;3.03;;;13.10;87.30;;;;;;4987581;28;20108;-75
2022/09/17 08:31:20;;;;;;;12.55;3.13;;;13.20;86.90;;;;;;4987936;28;20485;-75
2022/09/17 08:33:46;;;;;;;13.75;2.75;;;13.40;86.60;;;;;;4986303;28;20054;-77
2022/09/17 08:36:14;;;;;;;13.15;2.42;;;13.50;86.40;;;;;;4985808;28;20454;-75
2022/09/17 08:38:39;;;;;;;13.00;4.05;;;13.50;85.50;;;;;;4987150;28;20033;-76
2022/09/17 08:41:40;;;;;;;14.23;2.63;;;13.50;85.30;;;;;;4988035;28;20046;-76
2022/09/17 08:44:31;;;;;;;9.82;2.72;;;13.60;85.50;;;;;;4995773;28;20038;-76
2022/09/17 08:47:21;;;;;;;9.38;2.05;;;13.60;85.10;;;;;;4979730;28;20041;-77
2022/09/17 08:49:53;;;;;;;10.15;2.20;;;13.60;84.50;;;;;;4967489;28;20078;-76
2022/09/17 08:52:54;;;;;;;10.23;2.47;;;13.70;84.90;;;;;;4967663;28;20169;-76
2022/09/17 08:55:42;;;;;;;10.05;2.30;;;13.80;84.90;;;;;;4965094;28;20089;-77
2022/09/17 08:58:11;;;;;;;7.72;2.63;;;13.80;84.40;;;;;;4965197;28;20077;-76
2022/09/17 09:00:57;;;;;;;8.55;1.90;;;13.70;83.90;;;;;;4967429;28;20090;-75
2022/09/17 09:03:50;;;;;;;8.95;2.20;;;13.80;83.90;;;;;;4959960;28;20035;-78
2022/09/17 09:06:17;;;;;;;8.25;1.85;;;13.90;83.90;;;;;;4961072;28;20078;-75
2022/09/17 09:08:58;;;;;;;8.65;1.90;;;13.90;83.50;;;;;;4966471;28;20069;-75
2022/09/17 09:11:26;;;;;;;8.98;2.53;;;14.00;83.20;;;;;;4963727;28;20026;-75
2022/09/17 09:14:20;;;;;;;13.82;2.35;;;14.00;81.70;;;;;;4973128;28;20053;-76
2022/09/17 09:16:48;;;;;;;9.07;1.92;;;14.00;82.10;;;;;;4969273;28;20023;-75
2022/09/17 09:19:27;;;;;;;10.55;2.40;;;14.10;82.60;;;;;;4965650;28;20037;-76
2022/09/17 09:22:23;;;;;;;10.25;2.03;;;14.30;82.10;;;;;;4966136;28;20093;-77
2022/09/17 09:25:15;;;;;;;15.07;2.05;;;14.20;79.70;;;;;;4963896;28;20039;-75
2022/09/17 09:28:15;;;;;;;10.48;1.85;;;14.10;79.40;;;;;;4962876;28;20051;-75
2022/09/17 09:31:02;;;;;;;10.52;2.10;;;14.20;80.30;;;;;;4963528;28;20100;-76
2022/09/17 09:33:38;;;;;;;11.80;2.28;;;14.50;77.70;;;;;;4987830;28;20027;-76
2022/09/17 09:36:13;;;;;;;9.75;2.25;;;14.80;75.30;;;;;;4985902;28;20042;-76
2022/09/17 09:39:01;;;;;;;10.95;2.50;;;15.10;74.70;;;;;;4984718;28;20030;-75
2022/09/17 09:41:39;;;;;;;10.38;2.00;;;15.00;74.70;;;;;;4986284;28;20117;-76
2022/09/17 09:44:10;;;;;;;7.78;1.63;;;15.00;74.20;;;;;;4985401;28;20038;-77
2022/09/17 09:46:56;;;;;;;9.02;1.90;;;14.80;74.70;;;;;;4984175;28;20069;-75
2022/09/17 09:49:55;;;;;;;10.52;1.73;;;14.70;75.10;;;;;;4994362;28;20121;-75
2022/09/17 09:52:58;;;;;;;10.88;2.67;;;14.60;74.50;;;;;;4986323;28;21119;-75
2022/09/17 09:55:50;;;;;;;8.95;1.95;;;14.50;75.30;;;;;;4988750;28;20037;-76
2022/09/17 09:58:23;;;;;;;7.95;2.22;;;14.80;74.80;;;;;;4980375;28;20046;-76
2022/09/17 10:00:50;;;;;;;12.40;2.65;;;14.90;73.60;;;;;;4983807;28;20026;-76
2022/09/17 10:03:25;;;;;;;8.43;1.65;;;15.10;75.40;;;;;;4984956;28;20037;-77
2022/09/17 10:05:59;;;;;;;8.95;2.00;;;14.90;74.20;;;;;;4965914;28;20070;-76
2022/09/17 10:08:26;;;;;;;12.18;2.10;;;14.60;74.90;;;;;;4966131;28;20047;-76
2022/09/17 10:11:19;;;;;;;9.63;1.92;;;14.70;76.20;;;;;;4986956;28;20038;-76
2022/09/17 10:13:44;;;;;;;13.05;1.77;;;15.00;76.20;;;;;;4985131;28;20057;-77
2022/09/17 10:16:24;;;;;;;11.60;2.30;;;15.10;74.90;;;;;;4985731;28;20057;-76
2022/09/17 10:19:18;;;;;;;12.38;2.03;;;15.20;76.50;;;;;;4985967;28;20038;-78
2022/09/17 10:21:44;;;;;;;11.40;2.08;;;15.10;74.90;;;;;;4985562;28;20041;-77
2022/09/17 10:24:28;;;;;;;10.00;1.80;;;15.00;74.00;;;;;;4985923;28;20023;-76
2022/09/17 10:27:10;;;;;;;8.65;1.77;;;14.80;76.30;;;;;;4985571;28;20116;-76
2022/09/17 10:29:36;;;;;;;9.55;2.05;;;14.60;75.30;;;;;;4964472;28;20101;-75
2022/09/17 10:32:05;;;;;;;8.57;1.65;;;14.30;75.70;;;;;;4962438;28;20032;-78
2022/09/17 10:34:32;;;;;;;11.13;2.53;;;14.60;77.40;;;;;;4963908;28;20043;-76
2022/09/17 10:36:58;;;;;;;10.13;2.50;;;15.10;76.70;;;;;;4967793;28;20382;-76
2022/09/17 10:39:47;;;;;;;13.80;2.47;;;15.30;76.30;;;;;;4967575;28;20026;-76
2022/09/17 10:42:15;;;;;;;12.10;2.42;;;15.30;76.60;;;;;;4962229;28;20077;-75
2022/09/17 10:44:53;;;;;;;13.65;2.42;;;15.40;75.30;;;;;;4963142;28;20074;-75
2022/09/17 10:47:28;;;;;;;10.63;1.85;;;15.10;76.50;;;;;;4965115;28;20055;-77
2022/09/17 10:50:00;;;;;;;10.23;2.47;;;15.00;76.30;;;;;;4966927;28;20026;-76
2022/09/17 10:52:30;;;;;;;13.77;2.15;;;15.50;76.20;;;;;;4960487;28;20026;-75
2022/09/17 10:55:09;;;;;;;13.23;2.50;;;16.00;73.60;;;;;;4965305;28;20031;-75
2022/09/17 10:57:46;;;;;;;10.45;1.92;;;16.10;70.40;;;;;;4983472;28;20043;-75
2022/09/17 11:00:19;;;;;;;13.25;2.17;;;16.20;70.40;;;;;;4983669;28;20057;-76
2022/09/17 11:02:57;;;;;;;12.60;2.20;;;16.00;72.00;;;;;;4981460;28;20035;-76
2022/09/17 11:05:32;;;;;;;11.38;2.30;;;15.40;72.60;;;;;;4977404;28;20058;-75
2022/09/17 11:08:12;;;;;;;10.93;2.65;;;15.00;74.00;;;;;;4998432;28;20038;-76
2022/09/17 11:10:46;;;;;;;10.07;2.13;;;14.80;74.00;;;;;;4991087;28;20041;-75
2022/09/17 11:13:21;;;;;;;;;;;14.80;74.90;;;;;;4992138;28;20054;-75
2022/09/17 11:15:59;;;;;;;11.85;2.40;;;15.00;71.80;;;;;;4986462;28;19972;-76
2022/09/17 11:19:06;;;;;;;8.50;2.10;;;15.20;72.20;;;;;;4987307;28;20352;-75
2022/09/17 11:21:45;;;;;;;9.82;2.25;;;15.50;70.90;;;;;;4989084;28;20489;-74
2022/09/17 11:24:16;;;;;;;9.82;1.80;;;15.70;71.20;;;;;;4987756;28;20049;-75
2022/09/17 11:27:04;;;;;;;8.90;2.25;;;15.90;71.70;;;;;;4987824;28;20066;-75
2022/09/17 11:29:35;;;;;;;6.53;1.58;;;16.00;69.70;;;;;;4987778;28;20022;-79
2022/09/17 11:32:22;;;;;;;8.20;1.77;;;16.10;68.00;;;;;;4988244;28;20102;-76
2022/09/17 11:35:15;;;;;;;10.32;2.03;;;16.10;66.50;;;;;;4984181;28;20124;-75
2022/09/17 11:37:52;;;;;;;10.00;1.70;;;16.40;66.40;;;;;;4987598;28;20034;-76
2022/09/17 11:40:42;;;;;;;9.68;2.00;;;16.80;67.90;;;;;;4982473;28;20438;-75
2022/09/17 11:43:30;;;;;;;10.02;2.17;;;16.60;65.30;;;;;;4988169;28;20113;-76
2022/09/17 11:46:17;;;;;;;7.07;1.95;;;16.80;66.10;;;;;;4989259;28;20050;-76
2022/09/17 11:48:47;;;;;;;9.30;1.88;;;16.40;65.00;;;;;;4987416;28;20054;-76
2022/09/17 11:51:30;;;;;;;9.95;2.05;;;16.10;67.60;;;;;;4986721;28;20034;-76
2022/09/17 11:54:06;;;;;;;10.07;2.13;;;15.80;68.50;;;;;;4985875;28;20042;-77
2022/09/17 11:56:47;;;;;;;8.73;2.17;;;15.80;68.60;;;;;;4986119;28;20038;-77
2022/09/17 11:59:20;;;;;;;9.20;2.20;;;15.90;67.80;;;;;;4986332;28;20397;-76
2022/09/17 12:02:03;;;;;;;8.93;2.20;;;16.10;68.50;;;;;;4986853;28;20077;-76
2022/09/17 12:04:34;;;;;;;10.05;2.33;;;16.10;67.40;;;;;;4987424;28;20034;-75
2022/09/17 12:07:29;;;;;;;12.43;2.30;;;16.10;65.30;;;;;;4988521;28;20107;-76
2022/09/17 12:10:06;;;;;;;13.40;2.45;;;15.90;68.40;;;;;;4968314;28;20061;-75
2022/09/17 12:12:38;;;;;;;11.23;2.25;;;15.60;69.30;;;;;;4982411;28;20046;-76
2022/09/17 12:15:12;;;;;;;10.10;2.33;;;15.50;70.50;;;;;;4978723;28;20439;-75
2022/09/17 12:17:54;;;;;;;10.90;2.92;;;15.80;68.80;;;;;;4986424;28;20115;-77
2022/09/17 12:20:30;;;;;;;10.52;2.40;;;16.20;66.80;;;;;;4985958;28;20046;-76
2022/09/17 12:22:58;;;;;;;12.15;2.28;;;16.50;64.80;;;;;;4987864;28;20030;-77
2022/09/17 12:25:30;;;;;;;11.00;2.05;;;16.60;64.30;;;;;;4984658;28;20039;-76
2022/09/17 12:28:07;;;;;;;9.52;2.20;;;16.30;68.60;;;;;;4985582;28;20467;-76
2022/09/17 12:30:48;;;;;;;13.25;2.90;;;15.90;71.30;;;;;;4981357;28;20447;-75
2022/09/17 12:33:21;;;;;;;10.68;2.30;;;15.00;76.00;;;;;;5002528;28;20047;-75
2022/09/17 12:36:19;;;;;;;12.05;1.90;;;14.60;77.80;;;;;;4982141;28;20239;-76
2022/09/17 12:39:25;;;;;;;13.05;2.45;;;14.10;79.30;;;;;;4984802;28;20053;-76
2022/09/17 12:42:03;;;;;;;11.90;2.55;;;13.90;80.40;;;;;;4985347;28;20034;-76
2022/09/17 12:44:47;;;;;;;13.40;2.47;;;13.90;80.90;;;;;;4984961;28;20038;-76
2022/09/17 12:47:38;;;;;;;10.77;1.95;;;14.00;81.60;;;;;;4978077;28;20328;-77
2022/09/17 12:50:12;;;;;;;12.07;2.30;;;14.30;81.70;;;;;;4987689;28;20042;-76
2022/09/17 12:53:01;;;;;;;;;;;14.70;81.30;;;;;;4988655;28;20042;-77
2022/09/17 12:55:42;;;;;;;8.57;2.17;;;14.80;79.30;;;;;;4981538;28;19928;-76
2022/09/17 12:58:31;;;;;;;10.43;1.83;;;15.10;77.90;;;;;;4987146;28;20089;-75
2022/09/17 13:01:12;;;;;;;7.05;1.98;;;15.10;75.80;;;;;;4984909;28;20034;-75
2022/09/17 13:03:45;;;;;;;9.05;2.15;;;15.10;76.30;;;;;;4981998;28;20053;-76
2022/09/17 13:06:37;;;;;;;9.70;2.00;;;15.20;76.90;;;;;;4987999;28;20078;-76
2022/09/17 13:09:09;;;;;;;8.43;1.83;;;15.40;74.60;;;;;;4990765;28;20038;-77